createdAt,value
2023-09-08T00:01:20.799Z,9.70
2023-09-08T00:06:28.546Z,9.00
2023-09-08T00:11:36.380Z,9.70
2023-09-08T00:16:45.186Z,9.10
2023-09-08T00:21:52.935Z,10.00
2023-09-08T00:27:00.667Z,10.50
2023-09-08T00:32:09.266Z,8.60
2023-09-08T00:37:17.038Z,8.10
2023-09-08T00:42:24.773Z,8.70
2023-09-08T00:47:33.023Z,8.70
2023-09-08T00:52:41.245Z,8.60
2023-09-08T00:57:49.044Z,10.30
2023-09-08T01:02:56.971Z,11.10
2023-09-08T01:08:05.931Z,12.10
2023-09-08T01:13:13.747Z,12.70
2023-09-08T01:18:21.997Z,9.90
2023-09-08T01:23:44.409Z,10.20
2023-09-08T01:28:54.235Z,12.40
2023-09-08T01:34:05.795Z,8.50
2023-09-08T01:39:13.548Z,11.70
2023-09-08T01:44:21.637Z,9.40
2023-09-08T01:49:29.442Z,11.90
2023-09-08T01:54:37.196Z,10.30
2023-09-08T01:59:45.939Z,11.00
2023-09-08T02:04:54.094Z,9.80
2023-09-08T02:10:01.883Z,9.10
2023-09-08T02:15:13.013Z,9.40
2023-09-08T02:20:21.758Z,10.20
2023-09-08T02:25:29.467Z,10.70
2023-09-08T02:30:38.209Z,12.50
2023-09-08T02:35:46.060Z,19.70
2023-09-08T02:40:54.131Z,22.90
2023-09-08T02:46:02.042Z,20.90
2023-09-08T02:51:10.475Z,23.90
2023-09-08T02:56:18.206Z,21.90
2023-09-08T03:01:26.060Z,19.10
2023-09-08T03:06:33.770Z,22.60
2023-09-08T03:11:41.542Z,26.40
2023-09-08T03:16:49.325Z,18.30
2023-09-08T03:21:57.524Z,19.50
2023-09-08T03:27:05.727Z,19.00
2023-09-08T03:32:13.699Z,11.80
2023-09-08T03:37:21.582Z,14.70
2023-09-08T03:42:29.321Z,14.10
2023-09-08T03:47:37.173Z,10.70
2023-09-08T03:52:45.200Z,12.80
2023-09-08T03:57:52.897Z,13.20
2023-09-08T04:03:00.923Z,12.40
2023-09-08T04:08:09.406Z,20.20
2023-09-08T04:13:17.173Z,15.90
2023-09-08T04:18:24.982Z,16.80
2023-09-08T04:23:33.307Z,14.70
2023-09-08T04:28:41.336Z,18.60
2023-09-08T04:33:49.154Z,21.80
2023-09-08T04:38:57.165Z,15.30
2023-09-08T04:44:05.026Z,16.10
2023-09-08T04:49:13.122Z,18.10
2023-09-08T04:54:22.380Z,15.90
2023-09-08T04:59:30.135Z,16.60
2023-09-08T05:04:37.848Z,12.20
2023-09-08T05:09:45.964Z,12.90
2023-09-08T05:14:57.748Z,14.30
2023-09-08T05:20:05.922Z,16.30
2023-09-08T05:25:14.186Z,15.50
2023-09-08T05:30:21.973Z,18.60
2023-09-08T05:35:29.729Z,16.80
2023-09-08T05:40:37.967Z,20.90
2023-09-08T05:45:45.690Z,18.50
2023-09-08T05:50:53.500Z,20.50
2023-09-08T05:56:01.350Z,20.50
2023-09-08T06:01:10.165Z,21.70
2023-09-08T06:06:17.865Z,23.30
2023-09-08T06:11:25.579Z,24.00
2023-09-08T06:16:33.326Z,19.40
2023-09-08T06:21:41.128Z,23.60
2023-09-08T06:26:51.140Z,18.40
2023-09-08T06:31:58.979Z,23.90
2023-09-08T06:37:07.117Z,17.80
2023-09-08T06:42:14.807Z,15.40
2023-09-08T06:47:22.617Z,15.20
2023-09-08T06:52:30.377Z,12.80
2023-09-08T06:57:38.105Z,18.40
2023-09-08T07:02:46.069Z,13.70
2023-09-08T07:07:53.906Z,11.40
2023-09-08T07:13:01.983Z,15.80
2023-09-08T07:18:10.248Z,18.60
2023-09-08T07:23:18.288Z,13.50
2023-09-08T07:28:26.123Z,13.90
2023-09-08T07:33:34.017Z,13.70
2023-09-08T07:38:41.827Z,10.80
2023-09-08T07:43:49.749Z,11.90
2023-09-08T07:48:57.844Z,8.20
2023-09-08T07:54:05.779Z,10.60
2023-09-08T07:59:13.684Z,10.90
2023-09-08T08:04:21.595Z,11.90
2023-09-08T08:09:29.394Z,8.30
2023-09-08T08:14:37.653Z,9.50
2023-09-08T08:19:45.347Z,10.70
2023-09-08T08:24:53.236Z,6.90
2023-09-08T08:30:02.466Z,6.90
2023-09-08T08:35:11.244Z,9.40
2023-09-08T08:40:19.139Z,10.50
2023-09-08T08:45:28.586Z,11.10
2023-09-08T08:50:38.158Z,6.70
2023-09-08T08:55:46.970Z,8.30
2023-09-08T09:00:56.435Z,6.20
2023-09-08T09:06:05.143Z,10.30
2023-09-08T09:11:13.320Z,7.30
2023-09-08T09:16:21.474Z,6.90
2023-09-08T09:21:47.435Z,8.20
2023-09-08T09:26:58.039Z,8.50
2023-09-08T09:32:09.311Z,5.20
2023-09-08T09:37:17.102Z,7.70
2023-09-08T09:42:25.278Z,6.10
2023-09-08T09:47:33.288Z,5.40
2023-09-08T09:52:42.468Z,6.60
2023-09-08T09:57:52.586Z,7.50
2023-09-08T10:03:01.200Z,7.10
2023-09-08T10:08:09.788Z,6.00
2023-09-08T10:13:24.052Z,8.10
2023-09-08T10:18:36.048Z,5.40
2023-09-08T10:23:45.956Z,6.40
2023-09-08T10:28:57.034Z,5.30
2023-09-08T10:34:05.873Z,13.00
2023-09-08T10:39:36.983Z,5.90
2023-09-08T10:44:45.577Z,7.60
2023-09-08T10:49:58.822Z,6.30
2023-09-08T10:55:09.182Z,7.60
2023-09-08T11:00:21.817Z,5.40
2023-09-08T11:05:29.702Z,6.70
2023-09-08T11:10:38.887Z,4.90
2023-09-08T11:15:46.622Z,6.30
2023-09-08T11:20:56.945Z,7.50
2023-09-08T11:26:05.568Z,4.80
2023-09-08T11:31:14.991Z,7.10
2023-09-08T11:36:22.840Z,4.90
2023-09-08T11:41:31.753Z,5.30
2023-09-08T11:46:39.960Z,5.20
2023-09-08T11:51:48.200Z,6.20
2023-09-08T11:56:56.333Z,3.70
2023-09-08T12:02:04.458Z,5.10
2023-09-08T12:07:17.464Z,5.60
2023-09-08T12:12:25.287Z,5.00
2023-09-08T12:17:33.109Z,4.80
2023-09-08T12:22:49.220Z,7.00
2023-09-08T12:27:57.343Z,4.50
2023-09-08T12:33:06.512Z,7.70
2023-09-08T12:38:15.328Z,6.70
2023-09-08T12:43:27.293Z,5.50
2023-09-08T12:48:36.570Z,16.10
2023-09-08T12:53:44.395Z,5.10
2023-09-08T12:58:52.147Z,4.50
2023-09-08T13:04:00.520Z,4.30
2023-09-08T13:09:09.612Z,6.30
2023-09-08T13:14:17.335Z,5.80
2023-09-08T13:19:25.140Z,6.90
2023-09-08T13:24:33.162Z,5.30
2023-09-08T13:29:41.495Z,6.70
2023-09-08T13:34:49.555Z,5.30
2023-09-08T13:39:57.525Z,6.40
2023-09-08T13:45:06.263Z,5.20
2023-09-08T13:50:14.684Z,5.40
2023-09-08T13:55:36.725Z,5.50
2023-09-08T14:00:47.165Z,4.50
2023-09-08T14:06:02.750Z,5.10
2023-09-08T14:11:15.799Z,6.10
2023-09-08T14:16:32.901Z,7.00
2023-09-08T14:21:41.211Z,30.20
2023-09-08T14:26:49.046Z,6.60
2023-09-08T14:31:56.858Z,6.70
2023-09-08T14:37:05.743Z,4.90
2023-09-08T14:42:15.427Z,7.00
2023-09-08T14:47:23.240Z,6.80
2023-09-08T14:52:30.965Z,7.80
2023-09-08T14:57:38.938Z,6.30
2023-09-08T15:02:47.474Z,4.70
2023-09-08T15:07:55.290Z,6.20
2023-09-08T15:13:03.277Z,3.40
2023-09-08T15:18:11.154Z,5.00
2023-09-08T15:23:19.005Z,5.90
2023-09-08T15:28:27.310Z,6.90
2023-09-08T15:33:35.397Z,7.70
2023-09-08T15:38:43.540Z,6.50
2023-09-08T15:43:53.334Z,5.50
2023-09-08T15:49:01.182Z,6.20
2023-09-08T15:54:09.470Z,5.40
2023-09-08T15:59:18.201Z,5.70
2023-09-08T16:04:26.196Z,7.00
2023-09-08T16:09:34.013Z,6.50
2023-09-08T16:14:41.779Z,8.20
2023-09-08T16:19:49.659Z,6.10
2023-09-08T16:24:57.388Z,7.80
2023-09-08T16:30:05.837Z,11.90
2023-09-08T16:35:13.710Z,10.00
2023-09-08T16:40:23.534Z,8.20
2023-09-08T16:45:31.425Z,8.10
2023-09-08T16:50:39.219Z,6.90
2023-09-08T16:55:47.054Z,7.00
2023-09-08T17:00:54.819Z,5.60
2023-09-08T17:06:02.725Z,6.60
2023-09-08T17:11:11.576Z,9.20
2023-09-08T17:16:19.352Z,9.80
2023-09-08T17:21:28.879Z,8.60
2023-09-08T17:26:36.635Z,8.20
2023-09-08T17:31:44.709Z,6.60
2023-09-08T17:36:56.979Z,11.20
2023-09-08T17:42:04.997Z,14.00
2023-09-08T17:47:12.751Z,15.50
2023-09-08T17:52:20.645Z,17.30
2023-09-08T17:57:28.444Z,17.50
2023-09-08T18:02:36.786Z,9.30
2023-09-08T18:07:46.121Z,10.10
2023-09-08T18:12:53.997Z,8.50
2023-09-08T18:18:02.052Z,9.00
2023-09-08T18:23:10.163Z,8.50
2023-09-08T18:28:19.034Z,10.10
2023-09-08T18:33:27.161Z,9.10
2023-09-08T18:38:35.670Z,9.40
2023-09-08T18:43:43.411Z,9.10
2023-09-08T18:48:51.291Z,19.00
2023-09-08T18:53:59.035Z,22.80
2023-09-08T18:59:07.130Z,19.20
2023-09-08T19:04:15.235Z,16.80
2023-09-08T19:09:23.343Z,12.60
2023-09-08T19:14:31.388Z,10.80
2023-09-08T19:19:39.094Z,14.00
2023-09-08T19:24:48.934Z,27.20
2023-09-08T19:29:56.920Z,31.70
2023-09-08T19:35:04.872Z,29.40
2023-09-08T19:40:13.247Z,15.00
2023-09-08T19:45:21.826Z,13.70
2023-09-08T19:50:29.778Z,14.70
2023-09-08T19:55:38.478Z,9.90
2023-09-08T20:00:46.168Z,8.80
2023-09-08T20:05:55.030Z,7.50
2023-09-08T20:11:04.108Z,8.80
2023-09-08T20:16:12.162Z,10.10
2023-09-08T20:21:19.988Z,10.70
2023-09-08T20:26:27.808Z,6.40
2023-09-08T20:31:35.518Z,8.40
2023-09-08T20:36:43.239Z,7.30
2023-09-08T20:41:51.061Z,11.60
2023-09-08T20:46:59.191Z,8.20
2023-09-08T20:52:12.839Z,9.90
2023-09-08T20:57:20.656Z,10.20
2023-09-08T21:02:28.453Z,8.70
2023-09-08T21:07:36.162Z,8.10
2023-09-08T21:12:43.899Z,9.70
2023-09-08T21:17:51.741Z,9.10
2023-09-08T21:23:02.908Z,8.50
2023-09-08T21:28:10.801Z,11.00
2023-09-08T21:33:21.830Z,11.50
2023-09-08T21:38:29.737Z,28.90
2023-09-08T21:43:38.021Z,23.70
2023-09-08T21:48:46.105Z,16.90
2023-09-08T21:53:53.983Z,10.20
2023-09-08T21:59:01.743Z,11.00
2023-09-08T22:04:10.248Z,17.90
2023-09-08T22:09:19.966Z,16.80
2023-09-08T22:14:28.701Z,12.00
2023-09-08T22:19:36.449Z,11.50
2023-09-08T22:24:44.176Z,12.60
2023-09-08T22:29:51.929Z,12.00
2023-09-08T22:34:59.797Z,11.50
2023-09-08T22:40:10.406Z,10.80
2023-09-08T22:45:18.535Z,13.60
2023-09-08T22:50:27.419Z,12.70
2023-09-08T22:55:35.255Z,13.60
2023-09-08T23:00:43.139Z,14.90
2023-09-08T23:05:51.400Z,11.80
2023-09-08T23:10:59.108Z,13.60
2023-09-08T23:16:07.201Z,13.80
2023-09-08T23:21:14.973Z,12.90
2023-09-08T23:26:22.907Z,13.50
2023-09-08T23:31:30.657Z,11.10
2023-09-08T23:36:38.412Z,10.60
2023-09-08T23:41:47.324Z,12.40
2023-09-08T23:46:55.219Z,11.60
2023-09-08T23:52:03.125Z,11.40
2023-09-08T23:57:10.904Z,12.30
